createdAt,value
2023-08-25T00:01:04.574Z,23.80
2023-08-25T00:03:51.354Z,23.80
2023-08-25T00:06:39.335Z,23.80
2023-08-25T00:09:25.658Z,23.76
2023-08-25T00:12:12.075Z,23.78
2023-08-25T00:14:58.378Z,23.80
2023-08-25T00:17:45.380Z,23.78
2023-08-25T00:20:32.290Z,23.75
2023-08-25T00:23:20.232Z,23.75
2023-08-25T00:26:06.677Z,23.72
2023-08-25T00:28:53.417Z,23.71
2023-08-25T00:31:39.911Z,23.67
2023-08-25T00:34:26.988Z,23.69
2023-08-25T00:37:13.816Z,23.70
2023-08-25T00:40:01.443Z,23.74
2023-08-25T00:42:48.108Z,23.76
2023-08-25T00:45:37.561Z,23.77
2023-08-25T00:48:24.570Z,23.75
2023-08-25T00:51:14.552Z,23.71
2023-08-25T00:54:00.820Z,23.68
2023-08-25T00:56:50.964Z,23.66
2023-08-25T00:59:38.353Z,23.60
2023-08-25T01:02:25.929Z,23.62
2023-08-25T01:05:12.618Z,23.63
2023-08-25T01:08:00.221Z,23.66
2023-08-25T01:10:53.563Z,23.68
2023-08-25T01:13:45.499Z,23.67
2023-08-25T01:16:35.314Z,23.67
2023-08-25T01:19:34.159Z,23.67
2023-08-25T01:22:24.149Z,23.68
2023-08-25T01:25:20.163Z,23.67
2023-08-25T01:28:08.053Z,23.61
2023-08-25T01:30:56.345Z,23.65
2023-08-25T01:33:47.180Z,23.65
2023-08-25T01:36:38.368Z,23.66
2023-08-25T01:39:24.532Z,23.68
2023-08-25T01:42:12.778Z,23.67
2023-08-25T01:44:59.393Z,23.68
2023-08-25T01:47:46.962Z,23.62
2023-08-25T01:50:33.649Z,23.61
2023-08-25T01:53:20.368Z,23.58
2023-08-25T01:56:06.748Z,23.55
2023-08-25T01:58:54.596Z,23.58
2023-08-25T02:01:44.136Z,23.56
2023-08-25T02:04:30.885Z,23.55
2023-08-25T02:07:17.937Z,23.56
2023-08-25T02:10:05.300Z,23.56
2023-08-25T02:12:54.418Z,23.55
2023-08-25T02:15:44.442Z,23.55
2023-08-25T02:18:30.934Z,23.55
2023-08-25T02:21:19.362Z,23.58
2023-08-25T02:24:05.659Z,23.60
2023-08-25T02:26:53.536Z,23.59
2023-08-25T02:29:40.124Z,23.59
2023-08-25T02:32:28.247Z,23.59
2023-08-25T02:35:15.296Z,23.58
2023-08-25T02:38:01.978Z,23.58
2023-08-25T02:40:48.864Z,23.58
2023-08-25T02:43:36.976Z,23.57
2023-08-25T02:46:23.307Z,23.57
2023-08-25T02:49:11.047Z,23.55
2023-08-25T02:51:57.652Z,23.55
2023-08-25T02:54:44.065Z,23.54
2023-08-25T02:57:30.513Z,23.55
2023-08-25T03:00:17.728Z,23.55
2023-08-25T03:03:04.235Z,23.52
2023-08-25T03:05:52.370Z,23.53
2023-08-25T03:08:39.478Z,23.52
2023-08-25T03:11:25.918Z,23.52
2023-08-25T03:14:12.187Z,23.53
2023-08-25T03:16:58.896Z,23.54
2023-08-25T03:19:45.395Z,23.54
2023-08-25T03:22:33.199Z,23.54
2023-08-25T03:25:21.474Z,23.54
2023-08-25T03:28:07.995Z,23.55
2023-08-25T03:30:55.138Z,23.52
2023-08-25T03:33:44.365Z,23.50
2023-08-25T03:36:31.264Z,23.50
2023-08-25T03:39:19.143Z,23.50
2023-08-25T03:42:05.949Z,23.49
2023-08-25T03:44:52.103Z,23.49
2023-08-25T03:47:38.804Z,23.50
2023-08-25T03:50:26.827Z,23.47
2023-08-25T03:53:13.175Z,23.43
2023-08-25T03:56:00.907Z,23.43
2023-08-25T03:58:47.424Z,23.45
2023-08-25T04:01:35.532Z,23.47
2023-08-25T04:04:21.730Z,23.47
2023-08-25T04:07:08.687Z,23.45
2023-08-25T04:09:56.132Z,23.47
2023-08-25T04:12:43.870Z,23.47
2023-08-25T04:15:30.171Z,23.44
2023-08-25T04:18:16.716Z,23.43
2023-08-25T04:21:03.217Z,23.43
2023-08-25T04:23:50.053Z,23.42
2023-08-25T04:26:36.417Z,23.40
2023-08-25T04:29:26.189Z,23.41
2023-08-25T04:32:12.949Z,23.42
2023-08-25T04:35:00.607Z,23.40
2023-08-25T04:37:48.777Z,23.43
2023-08-25T04:40:35.230Z,23.42
2023-08-25T04:43:21.803Z,23.41
2023-08-25T04:46:10.173Z,23.40
2023-08-25T04:48:57.389Z,23.41
2023-08-25T04:51:44.427Z,23.40
2023-08-25T04:54:31.077Z,23.37
2023-08-25T04:57:19.974Z,23.36
2023-08-25T05:00:10.036Z,23.37
2023-08-25T05:02:59.918Z,23.34
2023-08-25T05:05:47.538Z,23.38
2023-08-25T05:08:35.123Z,23.40
2023-08-25T05:11:24.011Z,23.38
2023-08-25T05:14:13.483Z,23.37
2023-08-25T05:17:02.608Z,23.35
2023-08-25T05:19:53.771Z,23.35
2023-08-25T05:22:40.490Z,23.35
2023-08-25T05:25:28.129Z,23.34
2023-08-25T05:28:14.662Z,23.34
2023-08-25T05:31:01.532Z,23.33
2023-08-25T05:34:23.566Z,23.36
2023-08-25T05:37:14.192Z,23.39
2023-08-25T05:40:02.540Z,23.39
2023-08-25T05:42:51.446Z,23.21
2023-08-25T05:45:38.473Z,23.17
2023-08-25T05:48:24.656Z,23.06
2023-08-25T05:51:10.994Z,23.08
2023-08-25T05:53:58.855Z,23.10
2023-08-25T05:56:45.266Z,23.20
2023-08-25T05:59:33.333Z,23.21
2023-08-25T06:02:20.184Z,23.21
2023-08-25T06:05:06.909Z,23.24
2023-08-25T06:07:53.514Z,23.28
2023-08-25T06:10:41.625Z,23.28
2023-08-25T06:13:28.034Z,23.33
2023-08-25T06:16:14.412Z,23.28
2023-08-25T06:19:01.039Z,23.30
2023-08-25T06:21:47.232Z,23.32
2023-08-25T06:24:33.676Z,23.35
2023-08-25T06:27:21.476Z,23.35
2023-08-25T06:30:09.668Z,23.37
2023-08-25T06:32:56.376Z,23.39
2023-08-25T06:35:42.616Z,23.42
2023-08-25T06:38:36.544Z,23.50
2023-08-25T06:41:30.109Z,23.63
2023-08-25T06:44:20.996Z,23.68
2023-08-25T06:47:08.203Z,23.72
2023-08-25T06:49:55.542Z,23.74
2023-08-25T06:52:43.558Z,23.78
2023-08-25T06:55:30.712Z,23.83
2023-08-25T06:58:21.465Z,23.86
2023-08-25T07:01:22.167Z,23.88
2023-08-25T07:04:12.374Z,23.96
2023-08-25T07:07:03.401Z,23.96
2023-08-25T07:09:55.101Z,23.95
2023-08-25T07:12:48.852Z,23.95
2023-08-25T07:15:35.902Z,23.95
2023-08-25T07:18:28.103Z,23.98
2023-08-25T07:21:14.612Z,24.05
2023-08-25T07:24:02.516Z,24.08
2023-08-25T07:26:48.926Z,24.05
2023-08-25T07:29:37.200Z,23.98
2023-08-25T07:32:25.745Z,23.96
2023-08-25T07:35:16.190Z,23.97
2023-08-25T07:38:02.898Z,23.93
2023-08-25T07:40:49.009Z,23.96
2023-08-25T07:43:36.507Z,23.96
2023-08-25T07:46:23.007Z,23.98
2023-08-25T07:49:09.408Z,23.97
2023-08-25T07:51:56.858Z,23.99
2023-08-25T07:54:44.025Z,24.00
2023-08-25T07:57:30.340Z,24.00
2023-08-25T08:00:18.927Z,24.02
2023-08-25T08:03:05.857Z,24.02
2023-08-25T08:05:52.335Z,24.03
2023-08-25T08:08:40.434Z,24.03
2023-08-25T08:11:26.997Z,24.03
2023-08-25T08:14:13.655Z,24.05
2023-08-25T08:16:59.938Z,24.08
2023-08-25T08:19:46.926Z,24.08
2023-08-25T08:22:39.375Z,24.09
2023-08-25T08:25:31.858Z,24.08
2023-08-25T08:28:37.671Z,24.13
2023-08-25T08:31:32.161Z,24.14
2023-08-25T08:34:19.558Z,24.13
2023-08-25T08:37:07.646Z,24.15
2023-08-25T08:39:55.525Z,24.15
2023-08-25T08:42:46.887Z,24.17
2023-08-25T08:45:35.919Z,24.19
2023-08-25T08:48:22.868Z,24.18
2023-08-25T08:51:09.372Z,24.18
2023-08-25T08:53:55.893Z,24.19
2023-08-25T08:56:42.356Z,24.19
2023-08-25T08:59:29.805Z,24.20
2023-08-25T09:02:16.096Z,24.20
2023-08-25T09:05:02.604Z,24.21
2023-08-25T09:07:50.872Z,24.20
2023-08-25T09:10:37.506Z,24.21
2023-08-25T09:13:24.129Z,24.22
2023-08-25T09:16:15.104Z,24.23
2023-08-25T09:19:01.836Z,24.24
2023-08-25T09:21:48.523Z,24.26
2023-08-25T09:24:38.494Z,24.26
2023-08-25T09:27:26.712Z,24.27
2023-08-25T09:30:15.898Z,24.27
2023-08-25T09:33:04.877Z,24.29
2023-08-25T09:35:51.599Z,24.30
2023-08-25T09:38:45.972Z,24.31
2023-08-25T09:41:40.962Z,24.33
2023-08-25T09:44:27.629Z,24.35
2023-08-25T09:47:15.378Z,24.35
2023-08-25T09:50:12.730Z,24.37
2023-08-25T09:53:00.792Z,24.34
2023-08-25T09:55:49.736Z,24.36
2023-08-25T09:58:36.779Z,24.36
2023-08-25T10:01:24.008Z,24.35
2023-08-25T10:04:11.888Z,24.37
2023-08-25T10:10:59.249Z,24.37
2023-08-25T10:13:46.846Z,24.39
2023-08-25T10:16:33.560Z,24.39
2023-08-25T10:19:22.930Z,24.39
2023-08-25T10:22:11.026Z,24.41
2023-08-25T10:25:01.898Z,24.42
2023-08-25T10:27:50.234Z,24.42
2023-08-25T10:30:37.752Z,24.44
2023-08-25T10:33:24.244Z,24.45
2023-08-25T10:36:16.321Z,24.45
2023-08-25T10:39:09.479Z,24.46
2023-08-25T10:42:00.151Z,24.45
2023-08-25T10:44:48.881Z,24.47
2023-08-25T10:47:42.647Z,24.48
2023-08-25T10:50:30.354Z,24.48
2023-08-25T10:53:34.671Z,24.48
2023-08-25T10:56:24.861Z,24.49
2023-08-25T10:59:12.203Z,24.50
2023-08-25T11:02:00.509Z,24.51
2023-08-25T11:04:47.474Z,24.51
2023-08-25T11:07:43.317Z,24.52
2023-08-25T11:10:32.496Z,24.52
2023-08-25T11:13:19.697Z,24.52
2023-08-25T11:16:07.997Z,24.53
2023-08-25T11:18:55.984Z,24.54
2023-08-25T11:21:42.416Z,24.54
2023-08-25T11:24:30.860Z,24.54
2023-08-25T11:27:18.117Z,24.55
2023-08-25T11:30:11.591Z,24.55
2023-08-25T11:32:57.957Z,24.55
2023-08-25T11:35:46.633Z,24.56
2023-08-25T11:38:33.141Z,24.56
2023-08-25T11:41:20.296Z,24.56
2023-08-25T11:44:07.169Z,24.56
2023-08-25T11:46:56.390Z,24.57
2023-08-25T11:49:45.365Z,24.61
2023-08-25T11:52:33.765Z,24.64
2023-08-25T11:55:20.461Z,24.64
2023-08-25T11:58:10.521Z,24.66
2023-08-25T12:01:01.076Z,24.73
2023-08-25T12:03:48.842Z,24.74
2023-08-25T12:06:37.735Z,24.73
2023-08-25T12:09:26.439Z,24.71
2023-08-25T12:12:12.731Z,24.71
2023-08-25T12:14:58.993Z,24.73
2023-08-25T12:17:48.449Z,24.73
2023-08-25T12:20:35.226Z,24.75
2023-08-25T12:23:21.966Z,24.75
2023-08-25T12:26:12.856Z,24.74
2023-08-25T12:29:00.084Z,24.79
2023-08-25T12:31:47.004Z,24.82
2023-08-25T12:34:33.631Z,24.80
2023-08-25T12:37:20.258Z,24.77
2023-08-25T12:40:07.798Z,24.76
2023-08-25T12:42:56.571Z,24.77
2023-08-25T12:45:45.081Z,24.76
2023-08-25T12:48:34.041Z,24.75
2023-08-25T12:51:20.622Z,24.76
2023-08-25T12:54:12.136Z,24.75
2023-08-25T12:56:58.655Z,24.75
2023-08-25T12:59:47.555Z,24.75
2023-08-25T13:02:34.319Z,24.74
2023-08-25T13:05:21.069Z,24.74
2023-08-25T13:08:08.170Z,24.72
2023-08-25T13:10:55.962Z,24.74
2023-08-25T13:13:42.553Z,24.75
2023-08-25T13:16:35.027Z,24.75
2023-08-25T13:19:22.206Z,24.76
2023-08-25T13:22:09.219Z,24.74
2023-08-25T13:24:57.028Z,24.74
2023-08-25T13:27:44.133Z,24.74
2023-08-25T13:30:30.686Z,24.76
2023-08-25T13:33:19.469Z,24.73
2023-08-25T13:36:06.776Z,24.74
2023-08-25T13:38:53.040Z,24.74
2023-08-25T13:41:39.662Z,24.74
2023-08-25T13:44:26.618Z,24.73
2023-08-25T13:47:13.927Z,24.76
2023-08-25T13:50:02.060Z,24.75
2023-08-25T13:52:48.739Z,24.76
2023-08-25T13:55:36.205Z,24.77
2023-08-25T13:58:23.514Z,24.78
2023-08-25T14:01:10.142Z,24.81
2023-08-25T14:03:56.778Z,24.82
2023-08-25T14:06:45.034Z,24.82
2023-08-25T14:09:32.010Z,24.83
2023-08-25T14:12:18.747Z,24.81
2023-08-25T14:15:05.309Z,24.81
2023-08-25T14:17:51.861Z,24.82
2023-08-25T14:20:39.222Z,24.85
2023-08-25T14:23:27.057Z,24.87
2023-08-25T14:26:13.754Z,24.87
2023-08-25T14:29:00.628Z,24.87
2023-08-25T14:31:47.234Z,24.88
2023-08-25T14:34:34.990Z,24.85
2023-08-25T14:37:21.539Z,24.84
2023-08-25T14:40:10.241Z,24.84
2023-08-25T14:42:57.055Z,24.85
2023-08-25T14:45:43.621Z,24.86
2023-08-25T14:48:30.384Z,24.87
2023-08-25T14:51:17.142Z,24.86
2023-08-25T14:54:03.718Z,24.88
2023-08-25T14:56:51.606Z,24.87
2023-08-25T14:59:37.983Z,24.86
2023-08-25T15:02:24.563Z,24.86
2023-08-25T15:05:11.652Z,24.86
2023-08-25T15:07:59.531Z,24.86
2023-08-25T15:10:46.187Z,24.86
2023-08-25T15:13:34.700Z,24.85
2023-08-25T15:16:21.764Z,24.86
2023-08-25T15:19:09.306Z,24.87
2023-08-25T15:21:56.120Z,24.89
2023-08-25T15:24:42.513Z,24.90
2023-08-25T15:27:28.590Z,24.91
2023-08-25T15:30:16.795Z,24.90
2023-08-25T15:33:04.723Z,24.90
2023-08-25T15:35:51.345Z,24.91
2023-08-25T15:38:38.175Z,24.91
2023-08-25T15:41:24.719Z,24.91
2023-08-25T15:44:11.330Z,24.87
2023-08-25T15:46:59.505Z,24.91
2023-08-25T15:49:46.237Z,24.91
2023-08-25T15:52:35.871Z,24.92
2023-08-25T15:55:22.498Z,24.91
2023-08-25T15:58:09.054Z,24.93
2023-08-25T16:00:58.925Z,24.92
2023-08-25T16:03:47.218Z,24.93
2023-08-25T16:06:33.831Z,24.92
2023-08-25T16:09:20.175Z,24.92
2023-08-25T16:12:07.274Z,24.91
2023-08-25T16:14:53.584Z,24.91
2023-08-25T16:17:41.873Z,24.90
2023-08-25T16:20:33.542Z,24.90
2023-08-25T16:23:20.609Z,24.91
2023-08-25T16:26:07.357Z,24.90
2023-08-25T16:28:53.720Z,24.90
2023-08-25T16:31:40.414Z,24.91
2023-08-25T16:34:28.698Z,24.91
2023-08-25T16:37:16.756Z,24.90
2023-08-25T16:40:03.586Z,24.90
2023-08-25T16:42:50.314Z,24.89
2023-08-25T16:45:36.802Z,24.89
2023-08-25T16:48:23.692Z,24.89
2023-08-25T16:51:10.458Z,24.89
2023-08-25T16:53:58.788Z,24.89
2023-08-25T16:56:45.526Z,24.88
2023-08-25T16:59:34.881Z,24.89
2023-08-25T17:02:21.744Z,24.89
2023-08-25T17:05:08.646Z,24.87
2023-08-25T17:07:55.223Z,24.88
2023-08-25T17:10:42.938Z,24.87
2023-08-25T17:13:30.328Z,24.88
2023-08-25T17:16:17.517Z,24.87
2023-08-25T17:19:05.018Z,24.88
2023-08-25T17:21:51.810Z,24.88
2023-08-25T17:24:38.532Z,24.88
2023-08-25T17:27:26.635Z,24.88
2023-08-25T17:30:14.170Z,24.88
2023-08-25T17:33:01.397Z,24.83
2023-08-25T17:35:49.320Z,24.88
2023-08-25T17:38:36.563Z,24.87
2023-08-25T17:41:23.210Z,24.87
2023-08-25T17:44:12.120Z,24.86
2023-08-25T17:46:58.720Z,24.87
2023-08-25T17:49:45.899Z,24.87
2023-08-25T17:52:32.379Z,24.85
2023-08-25T17:55:19.558Z,24.92
2023-08-25T17:58:06.346Z,25.00
2023-08-25T18:01:00.501Z,25.04
2023-08-25T18:03:47.036Z,25.07
2023-08-25T18:06:33.836Z,25.10
2023-08-25T18:09:22.668Z,25.14
2023-08-25T18:12:09.946Z,25.19
2023-08-25T18:14:56.336Z,25.20
2023-08-25T18:17:44.056Z,25.09
2023-08-25T18:20:30.908Z,25.09
2023-08-25T18:23:17.736Z,25.17
2023-08-25T18:26:04.464Z,25.16
2023-08-25T18:28:51.275Z,25.07
2023-08-25T18:31:38.025Z,25.04
2023-08-25T18:34:26.064Z,25.08
2023-08-25T18:37:12.786Z,25.02
2023-08-25T18:39:59.281Z,24.99
2023-08-25T18:42:45.780Z,24.96
2023-08-25T18:45:32.320Z,24.90
2023-08-25T18:48:21.667Z,24.90
2023-08-25T18:51:14.155Z,24.90
2023-08-25T18:54:00.482Z,24.78
2023-08-25T18:56:46.922Z,24.70
2023-08-25T18:59:33.487Z,24.54
2023-08-25T19:02:33.984Z,24.49
2023-08-25T19:05:21.022Z,24.31
2023-08-25T19:08:09.097Z,24.39
2023-08-25T19:10:55.520Z,24.33
2023-08-25T19:13:42.647Z,24.34
2023-08-25T19:16:29.465Z,24.38
2023-08-25T19:19:16.256Z,24.42
2023-08-25T19:22:02.873Z,24.34
2023-08-25T19:24:50.803Z,24.38
2023-08-25T19:27:37.370Z,24.29
2023-08-25T19:30:24.219Z,24.08
2023-08-25T19:33:10.771Z,24.05
2023-08-25T19:35:58.090Z,24.09
2023-08-25T19:38:45.627Z,24.07
2023-08-25T19:41:33.500Z,24.07
2023-08-25T19:44:20.207Z,23.96
2023-08-25T19:47:07.354Z,23.93
2023-08-25T19:49:54.122Z,23.87
2023-08-25T19:52:40.735Z,23.81
2023-08-25T19:55:27.453Z,23.77
2023-08-25T19:58:15.314Z,23.82
2023-08-25T20:01:05.043Z,23.70
2023-08-25T20:03:53.550Z,23.77
2023-08-25T20:06:43.185Z,23.58
2023-08-25T20:09:32.076Z,23.48
2023-08-25T20:12:19.792Z,23.39
2023-08-25T20:15:08.719Z,23.44
2023-08-25T20:17:57.756Z,23.58
2023-08-25T20:20:44.491Z,23.55
2023-08-25T20:23:35.448Z,23.60
2023-08-25T20:26:25.684Z,23.44
2023-08-25T20:29:13.939Z,23.34
2023-08-25T20:32:02.841Z,23.23
2023-08-25T20:34:49.743Z,23.26
2023-08-25T20:37:36.186Z,23.15
2023-08-25T20:40:22.604Z,23.25
2023-08-25T20:43:09.261Z,23.19
2023-08-25T20:46:13.421Z,23.16
2023-08-25T20:49:02.989Z,22.84
2023-08-25T20:51:49.141Z,22.96
2023-08-25T20:54:35.724Z,23.00
2023-08-25T20:57:24.565Z,22.82
2023-08-25T21:00:11.350Z,22.94
2023-08-25T21:02:58.106Z,22.85
2023-08-25T21:05:46.737Z,23.02
2023-08-25T21:08:33.703Z,22.94
2023-08-25T21:11:20.302Z,22.82
2023-08-25T21:14:07.242Z,22.68
2023-08-25T21:16:54.233Z,22.79
2023-08-25T21:19:41.133Z,22.94
2023-08-25T21:22:29.562Z,22.87
2023-08-25T21:25:16.306Z,22.89
2023-08-25T21:28:02.672Z,22.89
2023-08-25T21:30:53.182Z,22.88
2023-08-25T21:33:39.859Z,22.66
2023-08-25T21:36:26.063Z,22.66
2023-08-25T21:39:14.872Z,22.66
2023-08-25T21:42:01.651Z,22.63
2023-08-25T21:44:48.458Z,22.41
2023-08-25T21:47:35.265Z,22.79
2023-08-25T21:50:21.397Z,22.71
2023-08-25T21:53:07.716Z,22.65
2023-08-25T21:55:55.665Z,22.37
2023-08-25T21:58:42.552Z,22.56
2023-08-25T22:17:12.719Z,23.23
2023-08-25T22:20:06.674Z,23.24
2023-08-25T22:22:54.165Z,23.21
2023-08-25T22:25:40.951Z,23.23
2023-08-25T22:28:27.715Z,23.21
2023-08-25T22:31:14.682Z,23.20
2023-08-25T22:36:51.922Z,22.98
2023-08-25T22:39:38.431Z,22.97
2023-08-25T22:42:25.037Z,23.00
2023-08-25T22:45:11.819Z,23.01
2023-08-25T22:47:58.690Z,23.00
2023-08-25T22:50:47.238Z,23.00
2023-08-25T22:53:35.091Z,23.02
2023-08-25T22:56:21.280Z,23.06
2023-08-25T22:59:07.730Z,23.05
2023-08-25T23:17:36.743Z,23.09
2023-08-25T23:20:23.037Z,23.09
2023-08-25T23:23:09.568Z,23.09
2023-08-25T23:25:56.432Z,23.14
2023-08-25T23:28:42.902Z,23.12
2023-08-25T23:31:29.207Z,23.12
2023-08-25T23:34:17.116Z,23.08
2023-08-25T23:37:03.930Z,23.08
2023-08-25T23:39:50.011Z,23.18
2023-08-25T23:42:36.173Z,23.14
2023-08-25T23:45:22.565Z,23.11
2023-08-25T23:48:09.370Z,23.10
2023-08-25T23:50:57.468Z,23.10
2023-08-25T23:53:43.968Z,23.11
2023-08-25T23:56:30.420Z,23.17
2023-08-25T23:59:17.087Z,23.19
